Accueil
METAR-TAF:

METAR-TAF

Aéroports :

Aéroport Rouen Vallée de Seine

Rouen, France

latitude: 49-23N, longitude: 001-11E, altitude: 157 m

Observation

Le bulletin a été fait il y a 19 minutes, à 17:00 UTC
Vent 10 kt de ouest
Température 20°C
Humidité 60%
Pression 1012 hPa
Visibilité 10 km ou plus

METAR: LFOP 281700Z AUTO 26010KT 9999 ///TCU 20/12 Q1012 TEMPO 3000 SHRA

Heure: 19:19 (17:19 UTC)

Prévision

Le bulletin a été fait il y a 6 heures et 19 minutes, à 11:00 UTC
Prévision valable du 28 à 12 UTC au 29 à 12 UTC
Vent 11 kt de sud-ouest
Visibilité 10 km ou plus
Nuages fragmentés à une hauteur de 3500 ft
Temporairement
du 28 à 12 UTC au 28 à 19 UTC
Vent 13 kt de sud-ouest avec des rafales jusqu'à 23 kt
Visibilité: 3000 m
Nuages fragmentés à une hauteur de 1700 ft, Cumulus congestus.
averses de pluie

TAF: LFOP 281100Z 2812/2912 23011KT 9999 BKN035 TEMPO 2812/2819 23013G23KT 3000 SHRA BKN017TCU

Observations et prévisions météorologiques de plus de 4000 aéroports (messages METAR et TAF).

Les stations disponibles sont représentées par des disques jaunes et rouges sur la carte.

Passer la souris dessus pour voir le nom de la station.

Cliquer dessus pour voir les observations et prévisions météorologiques.

Pour changer de carte: cliquez sur les boutons verts avec une croix noire pour zoomer, sur le bouton vert avec un tiret pour effectuer un zoom arrière, ou sur les flèches vertes pour les cartes adjacentes.


METAR-TAF: